sensor_id;sensor_type;location;lat;lon;timestamp;P1;durP1;ratioP1;P2;durP2;ratioP2
22737;SDS011;11536;50.860;4.286;2023-08-30T00:00:19;6.30;;;3.40;;
22737;SDS011;11536;50.860;4.286;2023-08-30T00:02:48;5.90;;;3.28;;
22737;SDS011;11536;50.860;4.286;2023-08-30T00:05:13;7.85;;;3.60;;
22737;SDS011;11536;50.860;4.286;2023-08-30T00:07:39;7.45;;;3.85;;
22737;SDS011;11536;50.860;4.286;2023-08-30T00:10:06;6.25;;;3.30;;
22737;SDS011;11536;50.860;4.286;2023-08-30T00:12:33;7.05;;;3.40;;
22737;SDS011;11536;50.860;4.286;2023-08-30T00:14:59;6.72;;;3.42;;
22737;SDS011;11536;50.860;4.286;2023-08-30T00:17:24;7.10;;;3.25;;
22737;SDS011;11536;50.860;4.286;2023-08-30T00:19:50;6.60;;;3.28;;
22737;SDS011;11536;50.860;4.286;2023-08-30T00:22:17;6.43;;;3.30;;
22737;SDS011;11536;50.860;4.286;2023-08-30T00:24:43;12.68;;;4.13;;
22737;SDS011;11536;50.860;4.286;2023-08-30T00:27:10;6.90;;;2.80;;
22737;SDS011;11536;50.860;4.286;2023-08-30T00:29:35;9.25;;;3.97;;
22737;SDS011;11536;50.860;4.286;2023-08-30T00:32:01;5.40;;;2.95;;
22737;SDS011;11536;50.860;4.286;2023-08-30T00:34:27;6.97;;;3.30;;
22737;SDS011;11536;50.860;4.286;2023-08-30T00:36:52;6.80;;;2.75;;
22737;SDS011;11536;50.860;4.286;2023-08-30T00:39:18;7.88;;;3.20;;
22737;SDS011;11536;50.860;4.286;2023-08-30T00:41:43;7.10;;;3.40;;
22737;SDS011;11536;50.860;4.286;2023-08-30T00:44:09;6.57;;;3.47;;
22737;SDS011;11536;50.860;4.286;2023-08-30T00:46:35;5.47;;;3.20;;
22737;SDS011;11536;50.860;4.286;2023-08-30T00:49:01;7.78;;;3.67;;
22737;SDS011;11536;50.860;4.286;2023-08-30T00:51:28;7.07;;;3.28;;
22737;SDS011;11536;50.860;4.286;2023-08-30T00:53:54;9.82;;;3.25;;
22737;SDS011;11536;50.860;4.286;2023-08-30T00:56:20;6.90;;;3.42;;
22737;SDS011;11536;50.860;4.286;2023-08-30T00:58:47;8.27;;;3.38;;
22737;SDS011;11536;50.860;4.286;2023-08-30T01:01:14;7.43;;;3.70;;
22737;SDS011;11536;50.860;4.286;2023-08-30T01:03:41;8.43;;;3.33;;
22737;SDS011;11536;50.860;4.286;2023-08-30T01:06:07;7.47;;;4.03;;
22737;SDS011;11536;50.860;4.286;2023-08-30T01:08:33;6.50;;;3.58;;
22737;SDS011;11536;50.860;4.286;2023-08-30T01:13:33;6.13;;;3.50;;
22737;SDS011;11536;50.860;4.286;2023-08-30T01:16:05;6.25;;;3.53;;
22737;SDS011;11536;50.860;4.286;2023-08-30T01:18:32;9.05;;;4.32;;
22737;SDS011;11536;50.860;4.286;2023-08-30T01:21:01;7.70;;;3.58;;
22737;SDS011;11536;50.860;4.286;2023-08-30T01:23:40;8.40;;;3.42;;
22737;SDS011;11536;50.860;4.286;2023-08-30T01:28:55;6.05;;;3.15;;
22737;SDS011;11536;50.860;4.286;2023-08-30T01:31:24;6.75;;;3.60;;
22737;SDS011;11536;50.860;4.286;2023-08-30T01:33:52;7.30;;;3.80;;
22737;SDS011;11536;50.860;4.286;2023-08-30T01:36:18;6.82;;;3.50;;
22737;SDS011;11536;50.860;4.286;2023-08-30T01:38:44;8.10;;;3.50;;
22737;SDS011;11536;50.860;4.286;2023-08-30T01:41:14;8.02;;;3.78;;
22737;SDS011;11536;50.860;4.286;2023-08-30T01:43:40;6.50;;;3.10;;
22737;SDS011;11536;50.860;4.286;2023-08-30T01:46:07;8.60;;;3.83;;
22737;SDS011;11536;50.860;4.286;2023-08-30T01:48:34;9.30;;;3.85;;
22737;SDS011;11536;50.860;4.286;2023-08-30T01:51:00;9.80;;;3.67;;
22737;SDS011;11536;50.860;4.286;2023-08-30T01:53:27;8.15;;;3.75;;
22737;SDS011;11536;50.860;4.286;2023-08-30T01:55:53;7.32;;;3.33;;
22737;SDS011;11536;50.860;4.286;2023-08-30T01:58:19;8.27;;;4.10;;
22737;SDS011;11536;50.860;4.286;2023-08-30T02:00:45;9.25;;;3.65;;
22737;SDS011;11536;50.860;4.286;2023-08-30T02:03:12;8.13;;;4.10;;
22737;SDS011;11536;50.860;4.286;2023-08-30T02:05:51;8.57;;;3.55;;
22737;SDS011;11536;50.860;4.286;2023-08-30T02:08:29;7.13;;;3.45;;
22737;SDS011;11536;50.860;4.286;2023-08-30T02:11:02;7.00;;;3.70;;
22737;SDS011;11536;50.860;4.286;2023-08-30T02:13:33;8.35;;;3.55;;
22737;SDS011;11536;50.860;4.286;2023-08-30T02:16:00;7.80;;;3.53;;
22737;SDS011;11536;50.860;4.286;2023-08-30T02:18:27;8.50;;;3.70;;
22737;SDS011;11536;50.860;4.286;2023-08-30T02:20:53;7.32;;;3.50;;
22737;SDS011;11536;50.860;4.286;2023-08-30T02:23:22;7.75;;;3.78;;
22737;SDS011;11536;50.860;4.286;2023-08-30T02:25:49;7.32;;;3.70;;
22737;SDS011;11536;50.860;4.286;2023-08-30T02:28:14;7.85;;;3.50;;
22737;SDS011;11536;50.860;4.286;2023-08-30T02:30:40;7.25;;;3.60;;
22737;SDS011;11536;50.860;4.286;2023-08-30T02:33:05;7.50;;;3.45;;
22737;SDS011;11536;50.860;4.286;2023-08-30T02:35:31;8.23;;;3.75;;
22737;SDS011;11536;50.860;4.286;2023-08-30T02:37:57;8.50;;;3.90;;
22737;SDS011;11536;50.860;4.286;2023-08-30T02:40:23;6.78;;;3.38;;
22737;SDS011;11536;50.860;4.286;2023-08-30T02:42:48;8.18;;;3.47;;
22737;SDS011;11536;50.860;4.286;2023-08-30T02:45:14;7.75;;;3.92;;
22737;SDS011;11536;50.860;4.286;2023-08-30T02:47:39;8.27;;;3.70;;
22737;SDS011;11536;50.860;4.286;2023-08-30T02:50:05;9.27;;;3.47;;
22737;SDS011;11536;50.860;4.286;2023-08-30T02:52:31;9.02;;;3.78;;
22737;SDS011;11536;50.860;4.286;2023-08-30T02:54:56;10.02;;;3.58;;
22737;SDS011;11536;50.860;4.286;2023-08-30T02:57:22;7.70;;;3.25;;
22737;SDS011;11536;50.860;4.286;2023-08-30T02:59:47;8.70;;;3.63;;
22737;SDS011;11536;50.860;4.286;2023-08-30T03:02:13;9.07;;;3.67;;
22737;SDS011;11536;50.860;4.286;2023-08-30T03:04:39;6.32;;;3.00;;
22737;SDS011;11536;50.860;4.286;2023-08-30T03:07:04;8.05;;;3.05;;
22737;SDS011;11536;50.860;4.286;2023-08-30T03:09:30;7.82;;;3.15;;
22737;SDS011;11536;50.860;4.286;2023-08-30T03:11:55;9.50;;;3.22;;
22737;SDS011;11536;50.860;4.286;2023-08-30T03:14:21;6.60;;;2.83;;
22737;SDS011;11536;50.860;4.286;2023-08-30T03:16:47;6.97;;;2.97;;
22737;SDS011;11536;50.860;4.286;2023-08-30T03:19:12;6.97;;;2.95;;
22737;SDS011;11536;50.860;4.286;2023-08-30T03:21:38;8.23;;;3.50;;
22737;SDS011;11536;50.860;4.286;2023-08-30T03:24:04;8.32;;;3.33;;
22737;SDS011;11536;50.860;4.286;2023-08-30T03:26:30;6.45;;;3.15;;
22737;SDS011;11536;50.860;4.286;2023-08-30T03:28:55;9.93;;;3.20;;
22737;SDS011;11536;50.860;4.286;2023-08-30T03:31:21;6.75;;;3.33;;
22737;SDS011;11536;50.860;4.286;2023-08-30T03:33:47;8.07;;;3.35;;
22737;SDS011;11536;50.860;4.286;2023-08-30T03:36:17;8.73;;;3.85;;
22737;SDS011;11536;50.860;4.286;2023-08-30T03:38:44;9.30;;;3.50;;
22737;SDS011;11536;50.860;4.286;2023-08-30T03:41:11;6.47;;;3.15;;
22737;SDS011;11536;50.860;4.286;2023-08-30T03:43:36;7.28;;;3.17;;
22737;SDS011;11536;50.860;4.286;2023-08-30T03:46:03;8.85;;;3.65;;
22737;SDS011;11536;50.860;4.286;2023-08-30T03:48:29;9.63;;;3.88;;
22737;SDS011;11536;50.860;4.286;2023-08-30T03:50:55;7.32;;;3.20;;
22737;SDS011;11536;50.860;4.286;2023-08-30T03:53:21;8.55;;;3.22;;
22737;SDS011;11536;50.860;4.286;2023-08-30T03:55:47;7.28;;;3.17;;
22737;SDS011;11536;50.860;4.286;2023-08-30T03:58:13;8.65;;;3.15;;
22737;SDS011;11536;50.860;4.286;2023-08-30T04:00:39;8.65;;;3.58;;
22737;SDS011;11536;50.860;4.286;2023-08-30T04:03:09;8.55;;;3.50;;
22737;SDS011;11536;50.860;4.286;2023-08-30T04:05:37;7.97;;;3.03;;
22737;SDS011;11536;50.860;4.286;2023-08-30T04:08:03;9.80;;;3.63;;
22737;SDS011;11536;50.860;4.286;2023-08-30T04:10:37;10.02;;;3.33;;
22737;SDS011;11536;50.860;4.286;2023-08-30T04:13:03;8.57;;;3.50;;
22737;SDS011;11536;50.860;4.286;2023-08-30T04:15:33;8.43;;;3.88;;
22737;SDS011;11536;50.860;4.286;2023-08-30T04:18:00;12.60;;;3.67;;
22737;SDS011;11536;50.860;4.286;2023-08-30T04:20:26;12.98;;;4.18;;
22737;SDS011;11536;50.860;4.286;2023-08-30T04:22:51;11.25;;;3.90;;
22737;SDS011;11536;50.860;4.286;2023-08-30T04:25:18;10.57;;;3.45;;
22737;SDS011;11536;50.860;4.286;2023-08-30T04:27:44;8.75;;;3.08;;
22737;SDS011;11536;50.860;4.286;2023-08-30T04:30:09;10.40;;;3.95;;
22737;SDS011;11536;50.860;4.286;2023-08-30T04:32:36;10.13;;;3.45;;
22737;SDS011;11536;50.860;4.286;2023-08-30T04:35:01;10.77;;;3.40;;
22737;SDS011;11536;50.860;4.286;2023-08-30T04:37:29;7.90;;;3.30;;
22737;SDS011;11536;50.860;4.286;2023-08-30T04:39:56;8.73;;;3.20;;
22737;SDS011;11536;50.860;4.286;2023-08-30T04:42:22;7.82;;;3.33;;
22737;SDS011;11536;50.860;4.286;2023-08-30T04:44:48;8.52;;;2.88;;
22737;SDS011;11536;50.860;4.286;2023-08-30T04:47:14;10.35;;;3.15;;
22737;SDS011;11536;50.860;4.286;2023-08-30T04:49:39;8.90;;;3.85;;
22737;SDS011;11536;50.860;4.286;2023-08-30T04:52:05;9.75;;;2.83;;
22737;SDS011;11536;50.860;4.286;2023-08-30T04:54:31;6.85;;;2.95;;
22737;SDS011;11536;50.860;4.286;2023-08-30T04:56:56;11.20;;;3.40;;
22737;SDS011;11536;50.860;4.286;2023-08-30T04:59:22;8.43;;;3.05;;
22737;SDS011;11536;50.860;4.286;2023-08-30T05:01:47;9.45;;;3.53;;
22737;SDS011;11536;50.860;4.286;2023-08-30T05:04:13;8.23;;;3.65;;
22737;SDS011;11536;50.860;4.286;2023-08-30T05:06:39;6.97;;;2.72;;
22737;SDS011;11536;50.860;4.286;2023-08-30T05:09:04;10.15;;;3.53;;
22737;SDS011;11536;50.860;4.286;2023-08-30T05:11:31;8.30;;;3.25;;
22737;SDS011;11536;50.860;4.286;2023-08-30T05:13:57;11.73;;;4.13;;
22737;SDS011;11536;50.860;4.286;2023-08-30T05:16:22;8.77;;;3.25;;
22737;SDS011;11536;50.860;4.286;2023-08-30T05:18:48;7.65;;;3.30;;
22737;SDS011;11536;50.860;4.286;2023-08-30T05:21:14;9.75;;;3.80;;
22737;SDS011;11536;50.860;4.286;2023-08-30T05:23:40;10.65;;;3.65;;
22737;SDS011;11536;50.860;4.286;2023-08-30T05:26:09;13.70;;;4.72;;
22737;SDS011;11536;50.860;4.286;2023-08-30T05:28:37;11.75;;;4.28;;
22737;SDS011;11536;50.860;4.286;2023-08-30T05:31:03;17.33;;;5.90;;
22737;SDS011;11536;50.860;4.286;2023-08-30T05:33:29;15.07;;;5.30;;
22737;SDS011;11536;50.860;4.286;2023-08-30T05:35:55;15.65;;;5.93;;
22737;SDS011;11536;50.860;4.286;2023-08-30T05:38:20;14.00;;;6.05;;
22737;SDS011;11536;50.860;4.286;2023-08-30T05:40:46;14.38;;;5.50;;
22737;SDS011;11536;50.860;4.286;2023-08-30T05:43:12;15.23;;;5.63;;
22737;SDS011;11536;50.860;4.286;2023-08-30T05:45:37;12.23;;;5.30;;
22737;SDS011;11536;50.860;4.286;2023-08-30T05:48:03;9.88;;;4.10;;
22737;SDS011;11536;50.860;4.286;2023-08-30T05:50:30;11.57;;;4.47;;
22737;SDS011;11536;50.860;4.286;2023-08-30T05:52:55;9.73;;;3.67;;
22737;SDS011;11536;50.860;4.286;2023-08-30T05:55:21;8.13;;;3.28;;
22737;SDS011;11536;50.860;4.286;2023-08-30T05:57:46;8.15;;;3.67;;
22737;SDS011;11536;50.860;4.286;2023-08-30T06:00:12;7.43;;;3.60;;
22737;SDS011;11536;50.860;4.286;2023-08-30T06:02:38;7.82;;;3.10;;
22737;SDS011;11536;50.860;4.286;2023-08-30T06:05:05;7.18;;;3.10;;
22737;SDS011;11536;50.860;4.286;2023-08-30T06:07:31;6.75;;;2.78;;
22737;SDS011;11536;50.860;4.286;2023-08-30T06:09:57;7.53;;;3.45;;
22737;SDS011;11536;50.860;4.286;2023-08-30T06:12:22;7.38;;;3.15;;
22737;SDS011;11536;50.860;4.286;2023-08-30T06:14:48;7.47;;;2.88;;
22737;SDS011;11536;50.860;4.286;2023-08-30T06:17:17;7.03;;;3.30;;
22737;SDS011;11536;50.860;4.286;2023-08-30T06:19:46;9.10;;;3.08;;
22737;SDS011;11536;50.860;4.286;2023-08-30T06:22:12;5.35;;;2.60;;
22737;SDS011;11536;50.860;4.286;2023-08-30T06:24:38;7.30;;;2.80;;
22737;SDS011;11536;50.860;4.286;2023-08-30T06:27:04;7.05;;;3.10;;
22737;SDS011;11536;50.860;4.286;2023-08-30T06:29:30;7.90;;;3.38;;
22737;SDS011;11536;50.860;4.286;2023-08-30T06:31:57;8.27;;;3.03;;
22737;SDS011;11536;50.860;4.286;2023-08-30T06:34:23;5.30;;;2.58;;
22737;SDS011;11536;50.860;4.286;2023-08-30T06:36:49;6.90;;;2.78;;
22737;SDS011;11536;50.860;4.286;2023-08-30T06:39:14;7.00;;;3.28;;
22737;SDS011;11536;50.860;4.286;2023-08-30T06:41:40;5.78;;;2.90;;
22737;SDS011;11536;50.860;4.286;2023-08-30T06:44:05;6.55;;;2.75;;
22737;SDS011;11536;50.860;4.286;2023-08-30T06:46:31;7.45;;;3.00;;
22737;SDS011;11536;50.860;4.286;2023-08-30T06:48:57;8.18;;;3.55;;
22737;SDS011;11536;50.860;4.286;2023-08-30T06:51:23;6.13;;;2.58;;
22737;SDS011;11536;50.860;4.286;2023-08-30T06:53:48;7.03;;;2.83;;
22737;SDS011;11536;50.860;4.286;2023-08-30T06:56:15;6.70;;;2.95;;
22737;SDS011;11536;50.860;4.286;2023-08-30T06:58:41;7.57;;;3.35;;
22737;SDS011;11536;50.860;4.286;2023-08-30T07:01:07;9.57;;;2.95;;
22737;SDS011;11536;50.860;4.286;2023-08-30T07:03:32;8.50;;;2.97;;
22737;SDS011;11536;50.860;4.286;2023-08-30T07:05:58;10.57;;;3.22;;
22737;SDS011;11536;50.860;4.286;2023-08-30T07:08:24;7.30;;;3.03;;
22737;SDS011;11536;50.860;4.286;2023-08-30T07:10:53;8.27;;;3.47;;
22737;SDS011;11536;50.860;4.286;2023-08-30T07:13:19;8.38;;;3.40;;
22737;SDS011;11536;50.860;4.286;2023-08-30T07:15:45;7.60;;;3.00;;
22737;SDS011;11536;50.860;4.286;2023-08-30T07:18:13;7.45;;;3.40;;
22737;SDS011;11536;50.860;4.286;2023-08-30T07:20:39;8.00;;;3.10;;
22737;SDS011;11536;50.860;4.286;2023-08-30T07:23:05;9.30;;;3.60;;
22737;SDS011;11536;50.860;4.286;2023-08-30T07:25:37;8.75;;;3.33;;
22737;SDS011;11536;50.860;4.286;2023-08-30T07:28:03;10.02;;;3.88;;
22737;SDS011;11536;50.860;4.286;2023-08-30T07:30:30;9.52;;;3.17;;
22737;SDS011;11536;50.860;4.286;2023-08-30T07:32:56;10.90;;;3.53;;
22737;SDS011;11536;50.860;4.286;2023-08-30T07:35:21;7.05;;;2.92;;
22737;SDS011;11536;50.860;4.286;2023-08-30T07:37:48;7.50;;;3.22;;
22737;SDS011;11536;50.860;4.286;2023-08-30T07:40:14;7.28;;;3.17;;
22737;SDS011;11536;50.860;4.286;2023-08-30T07:42:39;8.10;;;3.05;;
22737;SDS011;11536;50.860;4.286;2023-08-30T07:45:07;7.43;;;3.20;;
22737;SDS011;11536;50.860;4.286;2023-08-30T07:47:35;6.68;;;2.90;;
22737;SDS011;11536;50.860;4.286;2023-08-30T07:50:01;8.93;;;3.00;;
22737;SDS011;11536;50.860;4.286;2023-08-30T07:52:30;8.27;;;3.03;;
22737;SDS011;11536;50.860;4.286;2023-08-30T07:54:55;7.95;;;3.13;;
22737;SDS011;11536;50.860;4.286;2023-08-30T07:57:21;8.35;;;3.10;;
22737;SDS011;11536;50.860;4.286;2023-08-30T07:59:47;7.78;;;3.00;;
22737;SDS011;11536;50.860;4.286;2023-08-30T08:02:13;7.55;;;2.95;;
22737;SDS011;11536;50.860;4.286;2023-08-30T08:04:38;7.25;;;2.63;;
22737;SDS011;11536;50.860;4.286;2023-08-30T08:07:04;6.43;;;2.50;;
22737;SDS011;11536;50.860;4.286;2023-08-30T08:09:30;7.00;;;2.42;;
22737;SDS011;11536;50.860;4.286;2023-08-30T08:11:56;6.18;;;2.20;;
22737;SDS011;11536;50.860;4.286;2023-08-30T08:14:22;6.15;;;2.28;;
22737;SDS011;11536;50.860;4.286;2023-08-30T08:16:48;6.30;;;2.15;;
22737;SDS011;11536;50.860;4.286;2023-08-30T08:19:14;6.03;;;1.88;;
22737;SDS011;11536;50.860;4.286;2023-08-30T08:21:40;6.28;;;2.35;;
22737;SDS011;11536;50.860;4.286;2023-08-30T08:24:05;4.68;;;1.77;;
22737;SDS011;11536;50.860;4.286;2023-08-30T08:26:31;4.32;;;1.70;;
22737;SDS011;11536;50.860;4.286;2023-08-30T08:28:57;5.50;;;2.25;;
22737;SDS011;11536;50.860;4.286;2023-08-30T08:31:23;3.80;;;1.73;;
22737;SDS011;11536;50.860;4.286;2023-08-30T08:34:05;4.53;;;1.92;;
22737;SDS011;11536;50.860;4.286;2023-08-30T08:36:32;4.32;;;1.90;;
22737;SDS011;11536;50.860;4.286;2023-08-30T08:38:58;6.78;;;1.77;;
22737;SDS011;11536;50.860;4.286;2023-08-30T08:41:23;5.25;;;1.75;;
22737;SDS011;11536;50.860;4.286;2023-08-30T08:43:56;4.35;;;1.70;;
22737;SDS011;11536;50.860;4.286;2023-08-30T08:46:24;4.80;;;1.80;;
22737;SDS011;11536;50.860;4.286;2023-08-30T08:48:54;5.43;;;2.20;;
22737;SDS011;11536;50.860;4.286;2023-08-30T08:51:22;5.60;;;2.30;;
22737;SDS011;11536;50.860;4.286;2023-08-30T08:53:49;5.30;;;2.20;;
22737;SDS011;11536;50.860;4.286;2023-08-30T08:56:15;3.90;;;1.80;;
22737;SDS011;11536;50.860;4.286;2023-08-30T08:58:41;5.45;;;2.63;;
22737;SDS011;11536;50.860;4.286;2023-08-30T09:01:08;4.47;;;2.20;;
22737;SDS011;11536;50.860;4.286;2023-08-30T09:03:35;4.70;;;2.10;;
22737;SDS011;11536;50.860;4.286;2023-08-30T09:06:02;6.55;;;2.33;;
22737;SDS011;11536;50.860;4.286;2023-08-30T09:08:28;6.03;;;2.70;;
22737;SDS011;11536;50.860;4.286;2023-08-30T09:10:54;5.72;;;2.70;;
22737;SDS011;11536;50.860;4.286;2023-08-30T09:13:19;4.88;;;2.30;;
22737;SDS011;11536;50.860;4.286;2023-08-30T09:15:47;5.55;;;2.60;;
22737;SDS011;11536;50.860;4.286;2023-08-30T09:18:17;5.60;;;2.65;;
22737;SDS011;11536;50.860;4.286;2023-08-30T09:20:44;6.07;;;2.92;;
22737;SDS011;11536;50.860;4.286;2023-08-30T09:23:16;7.55;;;2.95;;
22737;SDS011;11536;50.860;4.286;2023-08-30T09:25:43;6.78;;;3.10;;
22737;SDS011;11536;50.860;4.286;2023-08-30T09:28:10;7.95;;;3.10;;
22737;SDS011;11536;50.860;4.286;2023-08-30T09:30:36;7.38;;;3.38;;
22737;SDS011;11536;50.860;4.286;2023-08-30T09:33:02;6.40;;;3.10;;
22737;SDS011;11536;50.860;4.286;2023-08-30T09:35:28;7.60;;;3.60;;
22737;SDS011;11536;50.860;4.286;2023-08-30T09:37:54;7.13;;;3.17;;
22737;SDS011;11536;50.860;4.286;2023-08-30T09:40:19;7.85;;;3.00;;
22737;SDS011;11536;50.860;4.286;2023-08-30T09:42:45;7.35;;;3.47;;
22737;SDS011;11536;50.860;4.286;2023-08-30T09:45:45;6.32;;;3.00;;
22737;SDS011;11536;50.860;4.286;2023-08-30T09:48:07;6.07;;;2.88;;
22737;SDS011;11536;50.860;4.286;2023-08-30T09:50:34;5.40;;;2.83;;
22737;SDS011;11536;50.860;4.286;2023-08-30T09:53:07;6.25;;;2.90;;
22737;SDS011;11536;50.860;4.286;2023-08-30T09:58:03;6.88;;;3.28;;
22737;SDS011;11536;50.860;4.286;2023-08-30T10:00:29;6.05;;;3.35;;
22737;SDS011;11536;50.860;4.286;2023-08-30T10:02:57;6.75;;;2.80;;
22737;SDS011;11536;50.860;4.286;2023-08-30T10:05:24;7.57;;;3.47;;
22737;SDS011;11536;50.860;4.286;2023-08-30T10:07:51;7.32;;;4.03;;
22737;SDS011;11536;50.860;4.286;2023-08-30T10:10:19;7.40;;;3.25;;
22737;SDS011;11536;50.860;4.286;2023-08-30T10:12:47;7.03;;;3.03;;
22737;SDS011;11536;50.860;4.286;2023-08-30T10:15:15;8.43;;;3.70;;
22737;SDS011;11536;50.860;4.286;2023-08-30T10:17:41;7.22;;;4.13;;
22737;SDS011;11536;50.860;4.286;2023-08-30T10:20:10;9.02;;;4.47;;
22737;SDS011;11536;50.860;4.286;2023-08-30T10:22:39;6.53;;;3.65;;
22737;SDS011;11536;50.860;4.286;2023-08-30T10:25:08;7.80;;;3.97;;
22737;SDS011;11536;50.860;4.286;2023-08-30T10:27:38;7.05;;;3.85;;
22737;SDS011;11536;50.860;4.286;2023-08-30T10:30:06;7.55;;;3.75;;
22737;SDS011;11536;50.860;4.286;2023-08-30T10:32:38;7.95;;;4.15;;
22737;SDS011;11536;50.860;4.286;2023-08-30T10:35:09;7.43;;;3.60;;
22737;SDS011;11536;50.860;4.286;2023-08-30T10:37:56;7.28;;;3.85;;
22737;SDS011;11536;50.860;4.286;2023-08-30T10:40:24;8.20;;;4.22;;
22737;SDS011;11536;50.860;4.286;2023-08-30T10:42:59;8.73;;;3.95;;
22737;SDS011;11536;50.860;4.286;2023-08-30T10:45:26;8.02;;;4.20;;
22737;SDS011;11536;50.860;4.286;2023-08-30T10:47:54;8.05;;;4.07;;
22737;SDS011;11536;50.860;4.286;2023-08-30T10:50:31;7.22;;;3.78;;
22737;SDS011;11536;50.860;4.286;2023-08-30T10:52:58;9.15;;;4.45;;
22737;SDS011;11536;50.860;4.286;2023-08-30T10:55:25;11.25;;;4.65;;
22737;SDS011;11536;50.860;4.286;2023-08-30T10:57:58;9.25;;;4.60;;
22737;SDS011;11536;50.860;4.286;2023-08-30T11:00:28;9.52;;;4.30;;
22737;SDS011;11536;50.860;4.286;2023-08-30T11:02:55;7.95;;;4.15;;
22737;SDS011;11536;50.860;4.286;2023-08-30T11:05:22;7.22;;;4.18;;
22737;SDS011;11536;50.860;4.286;2023-08-30T11:07:52;9.82;;;4.47;;
22737;SDS011;11536;50.860;4.286;2023-08-30T11:10:19;7.90;;;3.85;;
22737;SDS011;11536;50.860;4.286;2023-08-30T11:12:48;6.53;;;3.60;;
22737;SDS011;11536;50.860;4.286;2023-08-30T11:15:14;9.70;;;3.85;;
22737;SDS011;11536;50.860;4.286;2023-08-30T11:17:41;10.13;;;4.38;;
22737;SDS011;11536;50.860;4.286;2023-08-30T11:20:08;6.35;;;2.67;;
22737;SDS011;11536;50.860;4.286;2023-08-30T11:22:42;7.35;;;2.17;;
22737;SDS011;11536;50.860;4.286;2023-08-30T11:25:09;7.03;;;1.98;;
22737;SDS011;11536;50.860;4.286;2023-08-30T11:27:42;5.85;;;1.60;;
22737;SDS011;11536;50.860;4.286;2023-08-30T11:30:09;5.95;;;1.48;;
22737;SDS011;11536;50.860;4.286;2023-08-30T11:32:36;6.07;;;1.60;;
22737;SDS011;11536;50.860;4.286;2023-08-30T11:35:05;4.72;;;1.38;;
22737;SDS011;11536;50.860;4.286;2023-08-30T11:37:32;8.23;;;1.40;;
22737;SDS011;11536;50.860;4.286;2023-08-30T11:39:58;6.90;;;1.30;;
22737;SDS011;11536;50.860;4.286;2023-08-30T11:42:26;5.40;;;1.42;;
22737;SDS011;11536;50.860;4.286;2023-08-30T11:44:51;4.32;;;1.10;;
22737;SDS011;11536;50.860;4.286;2023-08-30T11:47:24;6.00;;;1.30;;
22737;SDS011;11536;50.860;4.286;2023-08-30T11:49:52;5.20;;;1.20;;
22737;SDS011;11536;50.860;4.286;2023-08-30T11:52:19;5.80;;;1.42;;
22737;SDS011;11536;50.860;4.286;2023-08-30T11:54:49;4.65;;;0.90;;
22737;SDS011;11536;50.860;4.286;2023-08-30T11:57:15;6.43;;;1.17;;
22737;SDS011;11536;50.860;4.286;2023-08-30T11:59:41;7.55;;;1.40;;
22737;SDS011;11536;50.860;4.286;2023-08-30T12:02:08;5.45;;;1.30;;
22737;SDS011;11536;50.860;4.286;2023-08-30T12:04:40;8.98;;;1.17;;
22737;SDS011;11536;50.860;4.286;2023-08-30T12:07:10;5.53;;;1.10;;
22737;SDS011;11536;50.860;4.286;2023-08-30T12:09:47;7.25;;;0.93;;
22737;SDS011;11536;50.860;4.286;2023-08-30T12:12:13;6.70;;;1.00;;
22737;SDS011;11536;50.860;4.286;2023-08-30T12:14:40;4.80;;;0.98;;
22737;SDS011;11536;50.860;4.286;2023-08-30T12:17:05;7.53;;;1.27;;
22737;SDS011;11536;50.860;4.286;2023-08-30T12:19:33;6.55;;;1.20;;
22737;SDS011;11536;50.860;4.286;2023-08-30T12:22:06;4.65;;;1.17;;
22737;SDS011;11536;50.860;4.286;2023-08-30T12:24:44;4.50;;;1.00;;
22737;SDS011;11536;50.860;4.286;2023-08-30T12:27:11;5.38;;;1.10;;
22737;SDS011;11536;50.860;4.286;2023-08-30T12:29:37;5.53;;;1.23;;
22737;SDS011;11536;50.860;4.286;2023-08-30T12:32:07;6.10;;;1.10;;
22737;SDS011;11536;50.860;4.286;2023-08-30T12:34:33;5.20;;;1.23;;
22737;SDS011;11536;50.860;4.286;2023-08-30T12:36:59;5.60;;;1.05;;
22737;SDS011;11536;50.860;4.286;2023-08-30T12:39:27;3.72;;;1.08;;
22737;SDS011;11536;50.860;4.286;2023-08-30T12:41:53;14.77;;;1.60;;
22737;SDS011;11536;50.860;4.286;2023-08-30T12:44:18;6.72;;;0.90;;
22737;SDS011;11536;50.860;4.286;2023-08-30T12:46:44;4.45;;;0.90;;
22737;SDS011;11536;50.860;4.286;2023-08-30T12:49:10;7.07;;;0.85;;
22737;SDS011;11536;50.860;4.286;2023-08-30T12:51:36;6.32;;;0.93;;
22737;SDS011;11536;50.860;4.286;2023-08-30T12:54:02;6.43;;;1.10;;
22737;SDS011;11536;50.860;4.286;2023-08-30T12:56:28;4.15;;;1.20;;
22737;SDS011;11536;50.860;4.286;2023-08-30T12:58:57;3.17;;;0.70;;
22737;SDS011;11536;50.860;4.286;2023-08-30T13:01:25;3.78;;;0.95;;
22737;SDS011;11536;50.860;4.286;2023-08-30T13:03:51;4.53;;;1.00;;
22737;SDS011;11536;50.860;4.286;2023-08-30T13:06:17;2.58;;;0.73;;
22737;SDS011;11536;50.860;4.286;2023-08-30T13:08:42;4.50;;;0.95;;
22737;SDS011;11536;50.860;4.286;2023-08-30T13:11:08;4.53;;;1.00;;
22737;SDS011;11536;50.860;4.286;2023-08-30T13:13:34;3.60;;;0.90;;
22737;SDS011;11536;50.860;4.286;2023-08-30T13:15:59;3.50;;;0.70;;
22737;SDS011;11536;50.860;4.286;2023-08-30T13:18:25;5.75;;;0.90;;
22737;SDS011;11536;50.860;4.286;2023-08-30T13:20:53;6.38;;;1.38;;
22737;SDS011;11536;50.860;4.286;2023-08-30T13:23:19;5.00;;;0.68;;
22737;SDS011;11536;50.860;4.286;2023-08-30T13:25:45;3.20;;;0.63;;
22737;SDS011;11536;50.860;4.286;2023-08-30T13:28:12;3.00;;;0.38;;
22737;SDS011;11536;50.860;4.286;2023-08-30T13:30:43;2.70;;;0.50;;
22737;SDS011;11536;50.860;4.286;2023-08-30T13:33:09;2.97;;;0.55;;
22737;SDS011;11536;50.860;4.286;2023-08-30T13:35:36;3.20;;;0.65;;
22737;SDS011;11536;50.860;4.286;2023-08-30T13:38:04;4.95;;;0.80;;
22737;SDS011;11536;50.860;4.286;2023-08-30T13:40:29;2.83;;;0.90;;
22737;SDS011;11536;50.860;4.286;2023-08-30T13:42:55;6.45;;;0.73;;
22737;SDS011;11536;50.860;4.286;2023-08-30T13:45:21;3.28;;;0.70;;
22737;SDS011;11536;50.860;4.286;2023-08-30T13:47:46;3.22;;;0.60;;
22737;SDS011;11536;50.860;4.286;2023-08-30T13:50:12;5.38;;;0.90;;
22737;SDS011;11536;50.860;4.286;2023-08-30T13:52:38;6.32;;;1.05;;
22737;SDS011;11536;50.860;4.286;2023-08-30T13:55:04;3.53;;;0.75;;
22737;SDS011;11536;50.860;4.286;2023-08-30T13:57:30;3.90;;;0.90;;
22737;SDS011;11536;50.860;4.286;2023-08-30T13:59:55;3.83;;;0.60;;
22737;SDS011;11536;50.860;4.286;2023-08-30T14:02:21;4.63;;;0.80;;
22737;SDS011;11536;50.860;4.286;2023-08-30T14:04:47;3.92;;;0.77;;
22737;SDS011;11536;50.860;4.286;2023-08-30T14:07:12;2.80;;;0.80;;
22737;SDS011;11536;50.860;4.286;2023-08-30T14:09:38;4.70;;;0.90;;
22737;SDS011;11536;50.860;4.286;2023-08-30T14:12:03;6.47;;;0.77;;
22737;SDS011;11536;50.860;4.286;2023-08-30T14:14:29;5.93;;;0.70;;
22737;SDS011;11536;50.860;4.286;2023-08-30T14:16:55;5.32;;;1.80;;
22737;SDS011;11536;50.860;4.286;2023-08-30T14:19:21;3.35;;;0.90;;
22737;SDS011;11536;50.860;4.286;2023-08-30T14:21:47;5.60;;;1.10;;
22737;SDS011;11536;50.860;4.286;2023-08-30T14:24:12;4.57;;;1.00;;
22737;SDS011;11536;50.860;4.286;2023-08-30T14:26:38;5.78;;;1.10;;
22737;SDS011;11536;50.860;4.286;2023-08-30T14:29:04;4.55;;;1.05;;
22737;SDS011;11536;50.860;4.286;2023-08-30T14:31:29;2.47;;;0.50;;
22737;SDS011;11536;50.860;4.286;2023-08-30T14:33:55;4.82;;;0.80;;
22737;SDS011;11536;50.860;4.286;2023-08-30T14:36:24;2.75;;;0.45;;
22737;SDS011;11536;50.860;4.286;2023-08-30T14:38:49;3.65;;;0.60;;
22737;SDS011;11536;50.860;4.286;2023-08-30T14:41:15;3.58;;;0.52;;
22737;SDS011;11536;50.860;4.286;2023-08-30T14:43:43;1.02;;;0.32;;
22737;SDS011;11536;50.860;4.286;2023-08-30T14:46:08;4.85;;;0.82;;
22737;SDS011;11536;50.860;4.286;2023-08-30T14:48:34;4.57;;;0.50;;
22737;SDS011;11536;50.860;4.286;2023-08-30T14:51:00;4.35;;;0.50;;